createdAt,value
2023-05-11T00:01:53.050Z,33.95
2023-05-11T00:04:19.944Z,33.96
2023-05-11T00:06:46.877Z,33.92
2023-05-11T00:09:13.806Z,34.03
2023-05-11T00:11:41.064Z,34.14
2023-05-11T00:14:08.208Z,34.05
2023-05-11T00:16:35.180Z,34.12
2023-05-11T00:19:02.135Z,34.18
2023-05-11T00:21:29.089Z,34.30
2023-05-11T00:23:56.245Z,34.47
2023-05-11T00:26:23.399Z,34.51
2023-05-11T00:28:51.461Z,34.44
2023-05-11T00:31:18.348Z,34.41
2023-05-11T00:33:45.601Z,34.35
2023-05-11T00:36:12.519Z,34.42
2023-05-11T00:38:42.850Z,34.40
2023-05-11T00:41:09.809Z,34.33
2023-05-11T00:43:36.642Z,34.37
2023-05-11T00:46:04.007Z,34.41
2023-05-11T00:48:30.949Z,34.37
2023-05-11T00:50:59.345Z,34.44
2023-05-11T00:53:26.394Z,34.47
2023-05-11T00:55:54.168Z,34.45
2023-05-11T00:58:21.230Z,34.43
2023-05-11T01:00:48.216Z,34.47
2023-05-11T01:03:16.320Z,34.50
2023-05-11T01:05:52.289Z,34.60
2023-05-11T01:08:24.881Z,34.53
2023-05-11T01:11:19.520Z,34.47
2023-05-11T01:13:50.896Z,34.43
2023-05-11T01:16:22.298Z,34.43
2023-05-11T01:19:02.362Z,34.53
2023-05-11T01:21:34.193Z,34.55
2023-05-11T01:24:30.929Z,34.63
2023-05-11T01:27:20.236Z,34.56
2023-05-11T01:29:58.789Z,34.63
2023-05-11T01:32:26.926Z,34.73
2023-05-11T01:35:08.970Z,34.85
2023-05-11T01:37:35.921Z,34.73
2023-05-11T01:40:10.679Z,34.54
2023-05-11T01:42:42.011Z,34.62
2023-05-11T01:45:09.564Z,34.67
2023-05-11T01:47:36.505Z,34.69
2023-05-11T01:50:04.316Z,34.68
2023-05-11T01:52:32.169Z,34.67
2023-05-11T01:54:59.097Z,34.67
2023-05-11T01:57:26.156Z,34.70
2023-05-11T01:59:53.100Z,34.81
2023-05-11T02:02:20.418Z,34.83
2023-05-11T02:04:47.638Z,34.91
2023-05-11T02:07:14.566Z,34.88
2023-05-11T02:09:41.524Z,35.11
2023-05-11T02:12:09.007Z,35.18
2023-05-11T02:14:36.781Z,35.27
2023-05-11T02:17:04.319Z,35.38
2023-05-11T02:19:33.061Z,35.56
2023-05-11T02:22:00.295Z,35.65
2023-05-11T02:24:27.538Z,35.84
2023-05-11T02:26:54.389Z,35.96
2023-05-11T02:29:21.633Z,36.06
2023-05-11T02:31:49.652Z,36.21
2023-05-11T02:34:44.498Z,36.26
2023-05-11T02:37:15.751Z,36.42
2023-05-11T02:39:44.948Z,36.54
2023-05-11T02:42:18.106Z,36.63
2023-05-11T02:44:51.451Z,36.76
2023-05-11T02:47:18.395Z,36.85
2023-05-11T02:49:45.571Z,36.93
2023-05-11T02:52:12.808Z,36.99
2023-05-11T02:54:43.072Z,37.14
2023-05-11T02:57:10.080Z,37.19
2023-05-11T02:59:37.343Z,37.32
2023-05-11T03:02:04.531Z,37.45
2023-05-11T03:04:31.755Z,37.48
2023-05-11T03:06:58.708Z,37.40
2023-05-11T03:09:25.763Z,37.33
2023-05-11T03:11:52.814Z,37.27
2023-05-11T03:14:20.170Z,37.23
2023-05-11T03:16:48.161Z,37.27
2023-05-11T03:19:15.406Z,37.30
2023-05-11T03:21:42.666Z,37.38
2023-05-11T03:24:09.833Z,37.62
2023-05-11T03:26:36.874Z,37.87
2023-05-11T03:29:03.943Z,37.95
2023-05-11T03:31:30.865Z,38.18
2023-05-11T03:33:58.760Z,38.35
2023-05-11T03:36:26.724Z,38.52
2023-05-11T03:38:56.691Z,38.79
2023-05-11T03:41:26.063Z,38.73
2023-05-11T03:43:54.647Z,38.67
2023-05-11T03:46:22.850Z,38.94
2023-05-11T03:48:50.386Z,39.30
2023-05-11T03:51:20.137Z,39.55
2023-05-11T03:53:46.962Z,40.01
2023-05-11T03:56:14.010Z,40.39
2023-05-11T03:58:40.906Z,40.78
2023-05-11T04:01:10.972Z,41.05
2023-05-11T04:03:51.247Z,41.39
2023-05-11T04:06:18.694Z,41.01
2023-05-11T04:08:47.410Z,40.26
2023-05-11T04:11:14.340Z,39.67
2023-05-11T04:13:41.517Z,39.47
2023-05-11T04:16:08.957Z,39.66
2023-05-11T04:18:35.955Z,39.44
2023-05-11T04:21:02.956Z,39.12
2023-05-11T04:23:29.905Z,39.02
2023-05-11T04:25:58.686Z,38.82
2023-05-11T04:28:28.136Z,38.43
2023-05-11T04:30:55.989Z,38.29
2023-05-11T04:33:23.752Z,37.97
2023-05-11T04:35:52.006Z,37.89
2023-05-11T04:38:19.799Z,38.08
2023-05-11T04:40:48.080Z,38.31
2023-05-11T04:43:15.856Z,38.62
2023-05-11T04:45:48.167Z,38.85
2023-05-11T04:48:16.872Z,39.10
2023-05-11T04:50:45.110Z,39.07
2023-05-11T04:53:12.363Z,38.93
2023-05-11T04:55:39.784Z,38.88
2023-05-11T04:58:06.641Z,38.49
2023-05-11T05:00:33.764Z,38.53
2023-05-11T05:03:00.761Z,38.46
2023-05-11T05:05:27.721Z,38.52
2023-05-11T05:07:54.676Z,38.21
2023-05-11T05:10:22.136Z,37.97
2023-05-11T05:12:49.305Z,37.34
2023-05-11T05:15:16.246Z,37.45
2023-05-11T05:17:43.544Z,37.50
2023-05-11T05:20:11.090Z,37.37
2023-05-11T05:22:38.031Z,37.32
2023-05-11T05:25:05.576Z,37.24
2023-05-11T05:27:34.910Z,37.07
2023-05-11T05:30:05.221Z,36.49
2023-05-11T05:32:32.094Z,36.26
2023-05-11T05:34:59.462Z,36.08
2023-05-11T05:37:26.996Z,35.76
2023-05-11T05:39:54.168Z,35.55
2023-05-11T05:42:22.552Z,35.44
2023-05-11T05:44:50.308Z,35.25
2023-05-11T05:47:17.359Z,34.53
2023-05-11T05:49:44.764Z,33.79
2023-05-11T05:52:11.872Z,33.06
2023-05-11T05:54:40.989Z,32.44
2023-05-11T05:57:07.867Z,32.10
2023-05-11T05:59:35.283Z,31.86
2023-05-11T06:02:02.194Z,31.76
2023-05-11T06:04:29.784Z,31.63
2023-05-11T06:06:58.095Z,31.35
2023-05-11T06:09:25.033Z,31.00
2023-05-11T06:11:54.336Z,30.97
2023-05-11T06:14:22.790Z,30.95
2023-05-11T06:16:50.086Z,30.78
2023-05-11T06:19:16.992Z,30.59
2023-05-11T06:21:46.283Z,30.39
2023-05-11T06:24:13.496Z,30.15
2023-05-11T06:26:41.340Z,29.83
2023-05-11T06:29:08.280Z,29.60
2023-05-11T06:31:35.844Z,29.69
2023-05-11T06:34:04.169Z,29.73
2023-05-11T06:36:32.419Z,29.50
2023-05-11T06:38:59.709Z,29.41
2023-05-11T06:41:27.093Z,29.35
2023-05-11T06:43:53.926Z,29.31
2023-05-11T06:46:26.630Z,29.21
2023-05-11T06:48:53.615Z,29.10
2023-05-11T06:51:22.138Z,29.22
2023-05-11T06:53:48.974Z,29.04
2023-05-11T06:56:16.139Z,29.13
2023-05-11T06:58:45.945Z,28.90
2023-05-11T07:01:12.955Z,28.56
2023-05-11T07:03:39.931Z,28.07
2023-05-11T07:06:07.357Z,27.29
2023-05-11T07:08:34.481Z,26.17
2023-05-11T07:11:01.740Z,24.01
2023-05-11T07:13:28.791Z,21.51
2023-05-11T07:15:57.510Z,19.74
2023-05-11T07:18:24.992Z,18.18
2023-05-11T07:20:52.006Z,17.03
2023-05-11T07:23:19.251Z,15.78
2023-05-11T07:25:46.210Z,14.35
2023-05-11T07:28:13.167Z,13.24
2023-05-11T07:30:40.107Z,12.45
2023-05-11T07:33:07.170Z,11.64
2023-05-11T07:35:34.111Z,11.04
2023-05-11T07:38:01.063Z,10.51
2023-05-11T07:40:28.028Z,10.06
2023-05-11T07:42:55.070Z,9.60
2023-05-11T07:45:22.125Z,9.28
2023-05-11T07:47:49.020Z,9.59
2023-05-11T07:50:17.134Z,10.29
2023-05-11T07:52:44.302Z,11.30
2023-05-11T07:55:11.158Z,11.66
2023-05-11T07:57:38.107Z,11.86
2023-05-11T08:00:08.198Z,12.56
2023-05-11T08:02:38.949Z,13.07
2023-05-11T08:05:06.479Z,13.50
2023-05-11T08:07:33.392Z,14.38
2023-05-11T08:10:00.285Z,15.35
2023-05-11T08:12:27.587Z,16.03
2023-05-11T08:14:54.441Z,16.92
2023-05-11T08:17:21.834Z,17.35
2023-05-11T08:19:48.852Z,17.71
2023-05-11T08:22:15.816Z,17.98
2023-05-11T08:24:42.760Z,18.41
2023-05-11T08:27:09.708Z,18.74
2023-05-11T08:29:36.667Z,19.10
2023-05-11T08:32:03.736Z,19.40
2023-05-11T08:34:30.929Z,19.74
2023-05-11T08:37:00.272Z,20.07
2023-05-11T08:39:45.495Z,19.98
2023-05-11T08:42:17.654Z,19.54
2023-05-11T08:44:44.680Z,19.27
2023-05-11T08:47:22.648Z,19.20
2023-05-11T08:49:52.477Z,19.34
2023-05-11T08:52:19.646Z,19.61
2023-05-11T08:54:47.310Z,20.03
2023-05-11T08:57:14.680Z,20.25
2023-05-11T08:59:42.340Z,20.45
2023-05-11T09:02:11.158Z,20.54
2023-05-11T09:04:38.084Z,20.44
2023-05-11T09:07:05.040Z,20.27
2023-05-11T09:09:32.127Z,20.29
2023-05-11T09:11:59.067Z,20.31
2023-05-11T09:14:27.528Z,20.38
2023-05-11T09:16:54.746Z,20.61
2023-05-11T09:19:22.147Z,20.58
2023-05-11T09:21:49.131Z,20.45
2023-05-11T09:24:16.047Z,20.35
2023-05-11T09:26:43.022Z,20.56
2023-05-11T09:29:09.912Z,20.11
2023-05-11T09:31:40.176Z,19.82
2023-05-11T09:34:14.264Z,20.10
2023-05-11T09:36:42.482Z,19.92
2023-05-11T09:39:15.414Z,19.87
2023-05-11T09:41:43.290Z,20.08
2023-05-11T09:44:12.164Z,19.84
2023-05-11T09:46:40.143Z,19.33
2023-05-11T09:49:07.966Z,19.27
2023-05-11T09:51:37.034Z,19.55
2023-05-11T09:54:18.111Z,19.54
2023-05-11T09:56:47.273Z,19.45
2023-05-11T09:59:18.561Z,19.48
2023-05-11T10:01:45.508Z,19.66
2023-05-11T10:04:23.108Z,19.76
2023-05-11T10:06:53.732Z,19.72
2023-05-11T10:09:24.511Z,19.71
2023-05-11T10:11:51.500Z,19.69
2023-05-11T10:14:19.067Z,19.69
2023-05-11T10:16:46.630Z,19.71
2023-05-11T10:19:14.120Z,19.78
2023-05-11T10:21:41.134Z,19.69
2023-05-11T10:24:28.594Z,19.65
2023-05-11T10:26:56.294Z,19.51
2023-05-11T10:29:23.173Z,19.25
2023-05-11T10:31:51.760Z,19.15
2023-05-11T10:34:18.972Z,19.25
2023-05-11T10:36:46.427Z,19.56
2023-05-11T10:39:13.303Z,19.74
2023-05-11T10:41:56.458Z,19.70
2023-05-11T10:44:48.048Z,19.41
2023-05-11T10:47:37.764Z,19.36
2023-05-11T10:50:43.281Z,19.37
2023-05-11T10:53:16.659Z,19.57
2023-05-11T10:56:06.509Z,19.57
2023-05-11T10:58:48.454Z,19.36
2023-05-11T11:01:24.601Z,19.56
2023-05-11T11:03:58.534Z,19.71
2023-05-11T11:06:26.023Z,19.62
2023-05-11T11:09:00.462Z,19.50
2023-05-11T11:11:34.998Z,19.32
2023-05-11T11:14:03.836Z,19.24
2023-05-11T11:16:31.031Z,19.00
2023-05-11T11:19:32.476Z,19.08
2023-05-11T11:22:00.505Z,19.41
2023-05-11T11:24:39.688Z,19.36
2023-05-11T11:27:07.366Z,19.16
2023-05-11T11:29:35.268Z,19.11
2023-05-11T11:32:25.311Z,19.28
2023-05-11T11:34:52.685Z,19.42
2023-05-11T11:37:22.383Z,19.44
2023-05-11T11:39:50.541Z,19.51
2023-05-11T11:42:19.722Z,19.51
2023-05-11T11:44:46.705Z,19.42
2023-05-11T11:47:23.354Z,19.53
2023-05-11T11:49:54.021Z,19.55
2023-05-11T11:52:26.963Z,19.72
2023-05-11T11:54:57.847Z,19.52
2023-05-11T11:57:38.216Z,19.43
2023-05-11T12:00:11.670Z,19.49
2023-05-11T12:02:42.950Z,19.65
2023-05-11T12:05:12.806Z,19.68
2023-05-11T12:07:44.408Z,19.78
2023-05-11T12:10:13.327Z,19.79
2023-05-11T12:12:40.413Z,19.69
2023-05-11T12:15:08.147Z,19.52
2023-05-11T12:17:38.486Z,19.32
2023-05-11T12:20:15.453Z,19.48
2023-05-11T12:22:42.922Z,19.53
2023-05-11T12:25:11.545Z,19.41
2023-05-11T12:27:52.073Z,19.33
2023-05-11T12:30:23.416Z,19.45
2023-05-11T12:32:56.458Z,19.33
2023-05-11T12:35:33.962Z,19.09
2023-05-11T12:38:02.466Z,18.88
2023-05-11T12:40:29.545Z,18.68
2023-05-11T12:42:57.892Z,18.66
2023-05-11T12:45:25.655Z,18.83
2023-05-11T12:47:53.837Z,18.79
2023-05-11T12:50:21.136Z,18.79
2023-05-11T12:52:49.337Z,18.69
2023-05-11T12:55:28.452Z,18.77
2023-05-11T12:58:06.640Z,18.72
2023-05-11T13:00:33.712Z,18.96
2023-05-11T13:03:00.629Z,19.08
2023-05-11T13:05:29.511Z,19.32
2023-05-11T13:08:04.180Z,19.51
2023-05-11T13:10:31.028Z,19.85
2023-05-11T13:12:57.961Z,20.06
2023-05-11T13:15:25.457Z,20.22
2023-05-11T13:17:57.272Z,20.28
2023-05-11T13:20:27.303Z,20.21
2023-05-11T13:23:03.595Z,20.10
2023-05-11T13:25:30.541Z,20.21
2023-05-11T13:27:57.406Z,20.15
2023-05-11T13:30:28.519Z,20.02
2023-05-11T13:32:55.479Z,20.04
2023-05-11T13:35:22.460Z,19.81
2023-05-11T13:37:49.292Z,19.76
2023-05-11T13:40:16.127Z,19.82
2023-05-11T13:42:43.599Z,19.88
2023-05-11T13:45:12.194Z,19.83
2023-05-11T13:47:39.121Z,19.72
2023-05-11T13:50:07.288Z,19.58
2023-05-11T13:52:34.284Z,19.43
2023-05-11T13:55:01.151Z,19.31
2023-05-11T13:57:28.005Z,19.39
2023-05-11T13:59:54.987Z,19.34
2023-05-11T14:02:22.417Z,19.42
2023-05-11T14:04:49.315Z,19.60
2023-05-11T14:07:16.232Z,19.61
2023-05-11T14:09:44.053Z,19.76
2023-05-11T14:12:11.015Z,19.80
2023-05-11T14:14:38.019Z,19.85
2023-05-11T14:17:06.124Z,19.88
2023-05-11T14:19:33.119Z,19.90
2023-05-11T14:22:00.658Z,19.96
2023-05-11T14:24:27.615Z,19.99
2023-05-11T14:26:54.832Z,20.00
2023-05-11T14:29:21.721Z,19.96
2023-05-11T14:31:48.858Z,19.97
2023-05-11T14:34:15.796Z,19.99
2023-05-11T14:36:42.673Z,20.18
2023-05-11T14:39:09.629Z,20.30
2023-05-11T14:41:36.986Z,20.22
2023-05-11T14:44:03.953Z,20.21
2023-05-11T14:46:31.119Z,20.40
2023-05-11T14:48:58.054Z,20.44
2023-05-11T14:51:24.931Z,20.45
2023-05-11T14:53:52.381Z,20.42
2023-05-11T14:56:19.257Z,20.43
2023-05-11T14:58:47.078Z,20.44
2023-05-11T15:01:13.961Z,20.42
2023-05-11T15:03:41.739Z,20.42
2023-05-11T15:06:08.750Z,20.50
2023-05-11T15:08:35.644Z,20.38
2023-05-11T15:11:02.497Z,20.31
2023-05-11T15:13:29.314Z,20.55
2023-05-11T15:15:57.119Z,20.54
2023-05-11T15:18:24.155Z,20.77
2023-05-11T15:20:51.072Z,20.98
2023-05-11T15:23:18.121Z,21.25
2023-05-11T15:25:45.417Z,21.22
2023-05-11T15:28:12.646Z,21.26
2023-05-11T15:30:41.747Z,21.27
2023-05-11T15:33:10.563Z,21.45
2023-05-11T15:35:38.025Z,21.44
2023-05-11T15:38:05.404Z,21.35
2023-05-11T15:40:32.737Z,21.67
2023-05-11T15:43:00.490Z,21.68
2023-05-11T15:45:27.705Z,21.91
2023-05-11T15:47:54.692Z,22.38
2023-05-11T15:50:22.377Z,21.95
2023-05-11T15:52:49.636Z,21.75
2023-05-11T15:55:16.633Z,21.70
2023-05-11T15:57:43.473Z,21.82
2023-05-11T16:00:11.559Z,21.87
2023-05-11T16:02:38.795Z,22.09
2023-05-11T16:05:06.972Z,22.20
2023-05-11T16:07:34.313Z,22.22
2023-05-11T16:10:01.568Z,22.21
2023-05-11T16:12:28.438Z,22.21
2023-05-11T16:14:55.287Z,22.20
2023-05-11T16:17:22.239Z,22.35
2023-05-11T16:19:49.258Z,22.42
2023-05-11T16:22:16.227Z,22.38
2023-05-11T16:24:43.171Z,22.42
2023-05-11T16:27:10.123Z,22.56
2023-05-11T16:29:36.956Z,22.64
2023-05-11T16:32:04.019Z,22.74
2023-05-11T16:34:30.909Z,22.86
2023-05-11T16:36:59.183Z,23.01
2023-05-11T16:39:27.223Z,23.16
2023-05-11T16:41:54.083Z,23.20
2023-05-11T16:44:21.354Z,23.26
2023-05-11T16:46:49.144Z,23.23
2023-05-11T16:49:16.693Z,23.37
2023-05-11T16:51:43.641Z,23.34
2023-05-11T16:54:10.684Z,23.46
2023-05-11T16:56:37.761Z,23.58
2023-05-11T16:59:04.674Z,23.66
2023-05-11T17:01:32.529Z,23.62
2023-05-11T17:03:59.468Z,23.59
2023-05-11T17:06:27.659Z,23.63
2023-05-11T17:08:54.768Z,23.73
2023-05-11T17:11:21.909Z,23.81
2023-05-11T17:13:48.723Z,23.96
2023-05-11T17:16:15.820Z,24.01
2023-05-11T17:18:42.941Z,24.17
2023-05-11T17:21:11.233Z,24.42
2023-05-11T17:23:39.625Z,24.55
2023-05-11T17:26:10.321Z,24.70
2023-05-11T17:28:37.776Z,24.79
2023-05-11T17:31:12.212Z,24.88
2023-05-11T17:33:39.621Z,25.01
2023-05-11T17:36:07.479Z,25.04
2023-05-11T17:38:34.419Z,25.32
2023-05-11T17:41:04.914Z,25.48
2023-05-11T17:43:32.829Z,25.64
2023-05-11T17:46:00.312Z,25.78
2023-05-11T17:48:27.469Z,25.90
2023-05-11T17:50:54.411Z,26.07
2023-05-11T17:53:21.350Z,26.11
2023-05-11T17:55:48.302Z,26.14
2023-05-11T17:58:15.253Z,25.99
2023-05-11T18:00:42.202Z,26.10
2023-05-11T18:03:09.198Z,26.25
2023-05-11T18:05:47.491Z,26.27
2023-05-11T18:08:15.846Z,26.39
2023-05-11T18:10:42.690Z,26.57
2023-05-11T18:13:09.645Z,26.72
2023-05-11T18:15:36.517Z,26.84
2023-05-11T18:18:03.653Z,26.95
2023-05-11T18:20:30.975Z,27.07
2023-05-11T18:22:58.392Z,27.13
2023-05-11T18:25:28.038Z,27.09
2023-05-11T18:27:55.353Z,27.07
2023-05-11T18:30:22.421Z,27.11
2023-05-11T18:32:49.385Z,27.23
2023-05-11T18:35:17.215Z,27.30
2023-05-11T18:37:44.390Z,27.38
2023-05-11T18:40:11.756Z,27.33
2023-05-11T18:42:38.710Z,27.24
2023-05-11T18:45:07.509Z,27.16
2023-05-11T18:47:37.479Z,27.31
2023-05-11T18:50:04.797Z,27.33
2023-05-11T18:52:31.718Z,27.26
2023-05-11T18:54:58.581Z,27.16
2023-05-11T18:57:25.523Z,27.29
2023-05-11T18:59:52.825Z,27.41
2023-05-11T19:02:19.705Z,27.51
2023-05-11T19:04:46.676Z,27.56
2023-05-11T19:07:13.567Z,27.63
2023-05-11T19:09:40.440Z,27.64
2023-05-11T19:12:07.862Z,27.54
2023-05-11T19:14:34.954Z,27.58
2023-05-11T19:17:02.523Z,27.54
2023-05-11T19:19:29.458Z,27.53
2023-05-11T19:24:38.151Z,27.79
2023-05-11T19:27:07.902Z,27.93
2023-05-11T19:45:59.278Z,28.59
2023-05-11T19:53:48.096Z,28.62
2023-05-11T19:56:15.114Z,28.52
2023-05-11T19:58:52.605Z,28.54
2023-05-11T20:01:20.373Z,28.39
2023-05-11T20:06:28.275Z,27.99
2023-05-11T20:08:57.024Z,27.79
2023-05-11T20:11:26.800Z,27.70
2023-05-11T20:13:53.965Z,27.70
2023-05-11T20:16:21.058Z,27.85
2023-05-11T20:18:48.382Z,27.84
2023-05-11T20:21:15.927Z,28.02
2023-05-11T20:23:45.282Z,27.96
2023-05-11T20:26:17.512Z,27.86
2023-05-11T20:28:44.734Z,27.58
2023-05-11T20:31:11.876Z,27.53
2023-05-11T20:36:09.711Z,27.20
2023-05-11T20:38:36.668Z,26.98
2023-05-11T20:41:03.731Z,26.85
2023-05-11T20:43:30.779Z,26.69
2023-05-11T20:46:04.749Z,26.66
2023-05-11T20:48:40.046Z,26.72
2023-05-11T20:51:08.646Z,26.49
2023-05-11T20:53:35.989Z,26.46
2023-05-11T20:56:03.339Z,26.37
2023-05-11T20:58:31.698Z,26.22
2023-05-11T21:00:58.797Z,26.10
2023-05-11T21:03:26.302Z,26.14
2023-05-11T21:05:53.634Z,26.07
2023-05-11T21:08:20.505Z,26.01
2023-05-11T21:10:47.731Z,25.98
2023-05-11T21:13:14.580Z,26.03
2023-05-11T21:15:41.442Z,26.03
2023-05-11T21:18:08.764Z,26.13
2023-05-11T21:20:36.323Z,26.19
2023-05-11T21:23:03.752Z,26.26
2023-05-11T21:25:31.167Z,26.18
2023-05-11T21:27:58.047Z,26.28
2023-05-11T21:30:25.218Z,26.27
2023-05-11T21:32:52.256Z,26.32
2023-05-11T21:35:19.361Z,26.31
2023-05-11T21:37:49.825Z,26.31
2023-05-11T21:40:18.179Z,26.30
2023-05-11T21:42:45.544Z,26.23
2023-05-11T21:45:12.639Z,26.18
2023-05-11T21:47:39.831Z,26.15
2023-05-11T21:50:08.831Z,26.18
2023-05-11T21:52:37.038Z,26.22
2023-05-11T21:55:05.011Z,26.28
2023-05-11T21:57:31.955Z,26.22
2023-05-11T21:59:59.352Z,26.25
2023-05-11T22:02:27.194Z,26.15
2023-05-11T22:04:54.164Z,26.20
2023-05-11T22:07:21.047Z,26.23
2023-05-11T22:09:48.157Z,26.23
2023-05-11T22:12:15.204Z,26.23
2023-05-11T22:14:42.159Z,26.19
2023-05-11T22:17:09.073Z,26.16
2023-05-11T22:19:36.259Z,26.17
2023-05-11T22:22:03.109Z,26.18
2023-05-11T22:24:29.977Z,26.17
2023-05-11T22:26:57.328Z,26.24
2023-05-11T22:29:24.274Z,26.23
2023-05-11T22:31:51.115Z,26.25
2023-05-11T22:34:19.840Z,26.32
2023-05-11T22:36:46.789Z,26.46
2023-05-11T22:39:14.090Z,26.51
2023-05-11T22:41:41.074Z,26.58
2023-05-11T22:44:08.640Z,26.61
2023-05-11T22:46:35.575Z,26.67
2023-05-11T22:49:02.675Z,26.79
2023-05-11T22:51:29.586Z,26.89
2023-05-11T22:53:56.426Z,26.77
2023-05-11T22:56:23.288Z,26.77
2023-05-11T22:58:50.217Z,26.86
2023-05-11T23:01:17.166Z,26.91
2023-05-11T23:03:44.242Z,26.96
2023-05-11T23:06:11.723Z,27.00
2023-05-11T23:08:39.481Z,27.16
2023-05-11T23:11:07.631Z,27.19
2023-05-11T23:13:35.057Z,27.20
2023-05-11T23:16:04.034Z,27.24
2023-05-11T23:18:31.614Z,27.23
2023-05-11T23:20:59.072Z,27.24
2023-05-11T23:23:26.400Z,27.28
2023-05-11T23:25:53.458Z,27.31
2023-05-11T23:28:20.627Z,27.34
2023-05-11T23:30:47.738Z,27.44
2023-05-11T23:33:15.275Z,27.55
2023-05-11T23:35:42.187Z,27.65
2023-05-11T23:38:09.130Z,27.71
2023-05-11T23:40:36.336Z,27.80
2023-05-11T23:43:03.559Z,27.79
2023-05-11T23:45:30.913Z,27.84
2023-05-11T23:47:57.852Z,27.92
2023-05-11T23:50:25.017Z,27.95
2023-05-11T23:52:51.968Z,28.00
2023-05-11T23:55:19.023Z,28.12
2023-05-11T23:57:46.280Z,28.18
